sensor_id;sensor_type;location;lat;lon;timestamp;P1;durP1;ratioP1;P2;durP2;ratioP2
50267;SDS011;36153;50.960;6.220;2022-08-18T00:02:00;0.32;;;0.22;;
50267;SDS011;36153;50.960;6.220;2022-08-18T00:05:04;0.70;;;0.30;;
50267;SDS011;36153;50.960;6.220;2022-08-18T00:08:04;1.02;;;0.90;;
50267;SDS011;36153;50.960;6.220;2022-08-18T00:11:05;1.08;;;0.90;;
50267;SDS011;36153;50.960;6.220;2022-08-18T00:14:06;0.43;;;0.43;;
50267;SDS011;36153;50.960;6.220;2022-08-18T00:17:10;1.30;;;0.45;;
50267;SDS011;36153;50.960;6.220;2022-08-18T00:20:14;1.08;;;0.50;;
50267;SDS011;36153;50.960;6.220;2022-08-18T00:23:16;1.65;;;0.50;;
50267;SDS011;36153;50.960;6.220;2022-08-18T00:26:17;0.20;;;0.20;;
50267;SDS011;36153;50.960;6.220;2022-08-18T00:29:17;0.40;;;0.38;;
50267;SDS011;36153;50.960;6.220;2022-08-18T00:32:19;0.20;;;0.20;;
50267;SDS011;36153;50.960;6.220;2022-08-18T00:35:23;4.68;;;1.98;;
50267;SDS011;36153;50.960;6.220;2022-08-18T00:38:28;0.70;;;0.30;;
50267;SDS011;36153;50.960;6.220;2022-08-18T00:41:29;0.90;;;0.65;;
50267;SDS011;36153;50.960;6.220;2022-08-18T00:44:30;1.75;;;0.90;;
50267;SDS011;36153;50.960;6.220;2022-08-18T00:47:30;1.27;;;0.77;;
50267;SDS011;36153;50.960;6.220;2022-08-18T00:50:33;3.10;;;0.75;;
50267;SDS011;36153;50.960;6.220;2022-08-18T00:53:45;0.55;;;0.38;;
50267;SDS011;36153;50.960;6.220;2022-08-18T00:56:53;0.93;;;0.45;;
50267;SDS011;36153;50.960;6.220;2022-08-18T01:00:00;1.40;;;0.87;;
50267;SDS011;36153;50.960;6.220;2022-08-18T01:03:14;0.75;;;0.50;;
50267;SDS011;36153;50.960;6.220;2022-08-18T01:06:23;0.90;;;0.38;;
50267;SDS011;36153;50.960;6.220;2022-08-18T01:09:31;1.00;;;0.90;;
50267;SDS011;36153;50.960;6.220;2022-08-18T01:12:31;1.13;;;0.10;;
50267;SDS011;36153;50.960;6.220;2022-08-18T01:15:32;1.05;;;0.73;;
50267;SDS011;36153;50.960;6.220;2022-08-18T01:18:33;0.52;;;0.52;;
50267;SDS011;36153;50.960;6.220;2022-08-18T01:21:54;0.82;;;0.75;;
50267;SDS011;36153;50.960;6.220;2022-08-18T01:25:02;1.05;;;0.47;;
50267;SDS011;36153;50.960;6.220;2022-08-18T01:28:24;0.22;;;0.22;;
50267;SDS011;36153;50.960;6.220;2022-08-18T01:31:36;1.10;;;0.75;;
50267;SDS011;36153;50.960;6.220;2022-08-18T01:34:38;0.80;;;0.65;;
50267;SDS011;36153;50.960;6.220;2022-08-18T01:37:39;2.45;;;1.33;;
50267;SDS011;36153;50.960;6.220;2022-08-18T01:40:40;1.48;;;1.38;;
50267;SDS011;36153;50.960;6.220;2022-08-18T01:43:41;1.30;;;0.88;;
50267;SDS011;36153;50.960;6.220;2022-08-18T01:46:42;0.47;;;0.32;;
50267;SDS011;36153;50.960;6.220;2022-08-18T01:49:42;1.50;;;1.08;;
50267;SDS011;36153;50.960;6.220;2022-08-18T01:52:43;0.55;;;0.52;;
50267;SDS011;36153;50.960;6.220;2022-08-18T01:55:44;3.67;;;1.50;;
50267;SDS011;36153;50.960;6.220;2022-08-18T01:58:44;1.00;;;0.50;;
50267;SDS011;36153;50.960;6.220;2022-08-18T02:01:46;1.85;;;1.02;;
50267;SDS011;36153;50.960;6.220;2022-08-18T02:04:47;1.48;;;0.88;;
50267;SDS011;36153;50.960;6.220;2022-08-18T02:07:49;0.52;;;0.52;;
50267;SDS011;36153;50.960;6.220;2022-08-18T02:10:50;0.65;;;0.50;;
50267;SDS011;36153;50.960;6.220;2022-08-18T02:13:50;0.68;;;0.65;;
50267;SDS011;36153;50.960;6.220;2022-08-18T02:16:50;0.22;;;0.22;;
50267;SDS011;36153;50.960;6.220;2022-08-18T02:19:51;1.75;;;1.05;;
50267;SDS011;36153;50.960;6.220;2022-08-18T02:22:52;0.22;;;0.22;;
50267;SDS011;36153;50.960;6.220;2022-08-18T02:25:52;0.73;;;0.32;;
50267;SDS011;36153;50.960;6.220;2022-08-18T02:28:53;0.80;;;0.43;;
50267;SDS011;36153;50.960;6.220;2022-08-18T02:31:53;0.32;;;0.32;;
50267;SDS011;36153;50.960;6.220;2022-08-18T02:34:54;1.17;;;0.93;;
50267;SDS011;36153;50.960;6.220;2022-08-18T02:37:57;1.05;;;0.80;;
50267;SDS011;36153;50.960;6.220;2022-08-18T02:41:02;1.17;;;1.08;;
50267;SDS011;36153;50.960;6.220;2022-08-18T02:44:05;3.05;;;1.08;;
50267;SDS011;36153;50.960;6.220;2022-08-18T02:47:06;0.55;;;0.38;;
50267;SDS011;36153;50.960;6.220;2022-08-18T02:50:07;1.63;;;1.52;;
50267;SDS011;36153;50.960;6.220;2022-08-18T02:53:08;1.20;;;0.90;;
50267;SDS011;36153;50.960;6.220;2022-08-18T02:59:20;0.57;;;0.50;;
50267;SDS011;36153;50.960;6.220;2022-08-18T03:02:23;1.63;;;1.33;;
50267;SDS011;36153;50.960;6.220;2022-08-18T03:05:23;2.83;;;0.65;;
50267;SDS011;36153;50.960;6.220;2022-08-18T03:08:23;1.25;;;0.70;;
50267;SDS011;36153;50.960;6.220;2022-08-18T03:11:25;1.55;;;0.98;;
50267;SDS011;36153;50.960;6.220;2022-08-18T03:14:27;1.75;;;1.40;;
50267;SDS011;36153;50.960;6.220;2022-08-18T03:17:28;1.27;;;1.00;;
50267;SDS011;36153;50.960;6.220;2022-08-18T03:20:30;1.27;;;1.17;;
50267;SDS011;36153;50.960;6.220;2022-08-18T03:23:30;2.90;;;1.58;;
50267;SDS011;36153;50.960;6.220;2022-08-18T03:26:31;2.10;;;1.83;;
50267;SDS011;36153;50.960;6.220;2022-08-18T03:29:33;0.88;;;0.82;;
50267;SDS011;36153;50.960;6.220;2022-08-18T03:32:34;1.30;;;1.08;;
50267;SDS011;36153;50.960;6.220;2022-08-18T03:35:35;2.03;;;1.27;;
50267;SDS011;36153;50.960;6.220;2022-08-18T03:38:36;2.60;;;0.93;;
50267;SDS011;36153;50.960;6.220;2022-08-18T03:41:38;2.15;;;0.88;;
50267;SDS011;36153;50.960;6.220;2022-08-18T03:44:41;2.47;;;0.85;;
50267;SDS011;36153;50.960;6.220;2022-08-18T03:47:41;1.23;;;0.93;;
50267;SDS011;36153;50.960;6.220;2022-08-18T03:50:44;1.38;;;1.27;;
50267;SDS011;36153;50.960;6.220;2022-08-18T03:53:46;2.55;;;1.00;;
50267;SDS011;36153;50.960;6.220;2022-08-18T03:56:48;1.27;;;1.08;;
50267;SDS011;36153;50.960;6.220;2022-08-18T03:59:48;3.15;;;1.25;;
50267;SDS011;36153;50.960;6.220;2022-08-18T04:02:49;1.33;;;0.95;;
50267;SDS011;36153;50.960;6.220;2022-08-18T04:05:49;1.80;;;1.70;;
50267;SDS011;36153;50.960;6.220;2022-08-18T04:08:50;3.92;;;1.50;;
50267;SDS011;36153;50.960;6.220;2022-08-18T04:11:51;0.82;;;0.68;;
50267;SDS011;36153;50.960;6.220;2022-08-18T04:14:52;5.25;;;2.53;;
50267;SDS011;36153;50.960;6.220;2022-08-18T04:17:52;4.20;;;2.50;;
50267;SDS011;36153;50.960;6.220;2022-08-18T04:20:53;1.70;;;1.38;;
50267;SDS011;36153;50.960;6.220;2022-08-18T04:23:53;2.70;;;1.67;;
50267;SDS011;36153;50.960;6.220;2022-08-18T04:26:54;3.80;;;1.17;;
50267;SDS011;36153;50.960;6.220;2022-08-18T04:29:56;3.17;;;2.33;;
50267;SDS011;36153;50.960;6.220;2022-08-18T04:32:56;2.70;;;1.70;;
50267;SDS011;36153;50.960;6.220;2022-08-18T04:35:57;3.28;;;1.77;;
50267;SDS011;36153;50.960;6.220;2022-08-18T04:38:57;3.72;;;1.92;;
50267;SDS011;36153;50.960;6.220;2022-08-18T04:41:58;4.20;;;2.40;;
50267;SDS011;36153;50.960;6.220;2022-08-18T04:44:58;3.25;;;1.52;;
50267;SDS011;36153;50.960;6.220;2022-08-18T04:47:59;1.85;;;1.63;;
50267;SDS011;36153;50.960;6.220;2022-08-18T04:51:10;5.20;;;2.67;;
50267;SDS011;36153;50.960;6.220;2022-08-18T04:54:15;1.85;;;1.42;;
50267;SDS011;36153;50.960;6.220;2022-08-18T04:57:16;2.42;;;2.03;;
50267;SDS011;36153;50.960;6.220;2022-08-18T05:00:18;3.92;;;0.82;;
50267;SDS011;36153;50.960;6.220;2022-08-18T05:03:18;2.72;;;1.88;;
50267;SDS011;36153;50.960;6.220;2022-08-18T05:06:19;2.13;;;1.73;;
50267;SDS011;36153;50.960;6.220;2022-08-18T05:09:24;2.13;;;1.70;;
50267;SDS011;36153;50.960;6.220;2022-08-18T05:12:24;4.45;;;1.90;;
50267;SDS011;36153;50.960;6.220;2022-08-18T05:15:24;1.50;;;1.40;;
50267;SDS011;36153;50.960;6.220;2022-08-18T05:18:25;1.65;;;0.98;;
50267;SDS011;36153;50.960;6.220;2022-08-18T05:21:25;0.93;;;0.82;;
50267;SDS011;36153;50.960;6.220;2022-08-18T05:24:26;2.88;;;1.90;;
50267;SDS011;36153;50.960;6.220;2022-08-18T05:27:32;4.97;;;1.50;;
50267;SDS011;36153;50.960;6.220;2022-08-18T05:30:34;1.75;;;1.27;;
50267;SDS011;36153;50.960;6.220;2022-08-18T05:33:36;1.20;;;0.98;;
50267;SDS011;36153;50.960;6.220;2022-08-18T05:39:57;2.33;;;2.13;;
50267;SDS011;36153;50.960;6.220;2022-08-18T05:43:00;1.20;;;1.10;;
50267;SDS011;36153;50.960;6.220;2022-08-18T05:46:02;4.30;;;1.10;;
50267;SDS011;36153;50.960;6.220;2022-08-18T05:49:05;2.15;;;0.93;;
50267;SDS011;36153;50.960;6.220;2022-08-18T05:52:07;1.50;;;1.13;;
50267;SDS011;36153;50.960;6.220;2022-08-18T05:58:42;1.23;;;1.13;;
50267;SDS011;36153;50.960;6.220;2022-08-18T06:01:47;1.48;;;1.02;;
50267;SDS011;36153;50.960;6.220;2022-08-18T06:04:53;1.08;;;0.82;;
50267;SDS011;36153;50.960;6.220;2022-08-18T06:08:02;2.58;;;1.08;;
50267;SDS011;36153;50.960;6.220;2022-08-18T06:11:08;0.77;;;0.75;;
50267;SDS011;36153;50.960;6.220;2022-08-18T06:14:08;1.90;;;1.05;;
50267;SDS011;36153;50.960;6.220;2022-08-18T06:33:55;0.65;;;0.65;;
50267;SDS011;36153;50.960;6.220;2022-08-18T06:40:13;9.48;;;1.70;;
50267;SDS011;36153;50.960;6.220;2022-08-18T06:43:14;1.10;;;0.75;;
50267;SDS011;36153;50.960;6.220;2022-08-18T06:46:31;2.00;;;1.77;;
50267;SDS011;36153;50.960;6.220;2022-08-18T06:50:00;1.27;;;0.82;;
50267;SDS011;36153;50.960;6.220;2022-08-18T06:53:03;2.78;;;1.20;;
50267;SDS011;36153;50.960;6.220;2022-08-18T06:56:19;2.60;;;1.30;;
50267;SDS011;36153;50.960;6.220;2022-08-18T06:59:29;2.75;;;1.70;;
50267;SDS011;36153;50.960;6.220;2022-08-18T07:02:36;2.83;;;0.80;;
50267;SDS011;36153;50.960;6.220;2022-08-18T07:05:55;0.57;;;0.53;;
50267;SDS011;36153;50.960;6.220;2022-08-18T07:12:32;3.75;;;0.65;;
50267;SDS011;36153;50.960;6.220;2022-08-18T07:15:32;0.43;;;0.43;;
50267;SDS011;36153;50.960;6.220;2022-08-18T07:18:32;0.75;;;0.70;;
50267;SDS011;36153;50.960;6.220;2022-08-18T07:21:34;3.05;;;0.60;;
50267;SDS011;36153;50.960;6.220;2022-08-18T07:24:46;1.75;;;1.05;;
50267;SDS011;36153;50.960;6.220;2022-08-18T07:27:49;4.78;;;1.83;;
50267;SDS011;36153;50.960;6.220;2022-08-18T07:30:51;2.58;;;1.63;;
50267;SDS011;36153;50.960;6.220;2022-08-18T07:34:07;2.92;;;1.25;;
50267;SDS011;36153;50.960;6.220;2022-08-18T07:37:31;1.40;;;1.02;;
50267;SDS011;36153;50.960;6.220;2022-08-18T07:40:35;0.77;;;0.77;;
50267;SDS011;36153;50.960;6.220;2022-08-18T07:43:45;2.38;;;1.23;;
50267;SDS011;36153;50.960;6.220;2022-08-18T07:50:21;0.43;;;0.43;;
50267;SDS011;36153;50.960;6.220;2022-08-18T08:07:44;1.65;;;1.55;;
50267;SDS011;36153;50.960;6.220;2022-08-18T08:26:33;1.85;;;0.88;;
50267;SDS011;36153;50.960;6.220;2022-08-18T08:30:11;1.13;;;0.50;;
50267;SDS011;36153;50.960;6.220;2022-08-18T08:36:32;0.90;;;0.82;;
50267;SDS011;36153;50.960;6.220;2022-08-18T08:42:54;0.38;;;0.38;;
50267;SDS011;36153;50.960;6.220;2022-08-18T08:46:26;0.83;;;0.73;;
50267;SDS011;36153;50.960;6.220;2022-08-18T08:49:38;0.65;;;0.65;;
50267;SDS011;36153;50.960;6.220;2022-08-18T08:52:54;1.15;;;0.80;;
50267;SDS011;36153;50.960;6.220;2022-08-18T08:56:01;0.93;;;0.80;;
50267;SDS011;36153;50.960;6.220;2022-08-18T08:59:07;0.57;;;0.57;;
50267;SDS011;36153;50.960;6.220;2022-08-18T09:05:23;0.30;;;0.25;;
50267;SDS011;36153;50.960;6.220;2022-08-18T09:11:50;1.35;;;0.73;;
50267;SDS011;36153;50.960;6.220;2022-08-18T09:18:37;0.70;;;0.60;;
50267;SDS011;36153;50.960;6.220;2022-08-18T09:24:57;2.28;;;1.63;;
50267;SDS011;36153;50.960;6.220;2022-08-18T09:28:11;0.88;;;0.50;;
50267;SDS011;36153;50.960;6.220;2022-08-18T09:31:38;1.63;;;1.45;;
50267;SDS011;36153;50.960;6.220;2022-08-18T09:34:48;1.58;;;0.88;;
50267;SDS011;36153;50.960;6.220;2022-08-18T09:38:09;0.50;;;0.50;;
50267;SDS011;36153;50.960;6.220;2022-08-18T09:42:25;1.38;;;0.90;;
50267;SDS011;36153;50.960;6.220;2022-08-18T09:45:03;1.25;;;1.15;;
50267;SDS011;36153;50.960;6.220;2022-08-18T09:51:15;0.40;;;0.40;;
50267;SDS011;36153;50.960;6.220;2022-08-18T09:54:26;2.70;;;1.10;;
50267;SDS011;36153;50.960;6.220;2022-08-18T09:57:29;0.98;;;0.80;;
50267;SDS011;36153;50.960;6.220;2022-08-18T10:00:38;1.02;;;0.98;;
50267;SDS011;36153;50.960;6.220;2022-08-18T10:03:38;0.55;;;0.55;;
50267;SDS011;36153;50.960;6.220;2022-08-18T10:06:42;0.15;;;0.15;;
50267;SDS011;36153;50.960;6.220;2022-08-18T10:22:54;0.65;;;0.47;;
50267;SDS011;36153;50.960;6.220;2022-08-18T10:25:55;0.90;;;0.80;;
50267;SDS011;36153;50.960;6.220;2022-08-18T10:34:59;0.23;;;0.23;;
50267;SDS011;36153;50.960;6.220;2022-08-18T10:38:00;0.77;;;0.45;;
50267;SDS011;36153;50.960;6.220;2022-08-18T10:41:04;0.28;;;0.25;;
50267;SDS011;36153;50.960;6.220;2022-08-18T10:44:12;0.43;;;0.40;;
50267;SDS011;36153;50.960;6.220;2022-08-18T10:47:23;0.75;;;0.52;;
50267;SDS011;36153;50.960;6.220;2022-08-18T10:50:26;8.15;;;1.15;;
50267;SDS011;36153;50.960;6.220;2022-08-18T11:00:39;0.22;;;0.20;;
50267;SDS011;36153;50.960;6.220;2022-08-18T11:06:50;1.23;;;0.60;;
50267;SDS011;36153;50.960;6.220;2022-08-18T11:09:56;0.40;;;0.22;;
50267;SDS011;36153;50.960;6.220;2022-08-18T11:16:30;0.43;;;0.17;;
50267;SDS011;36153;50.960;6.220;2022-08-18T11:19:42;1.15;;;0.38;;
50267;SDS011;36153;50.960;6.220;2022-08-18T11:22:54;0.82;;;0.73;;
50267;SDS011;36153;50.960;6.220;2022-08-18T11:26:11;1.58;;;0.10;;
50267;SDS011;36153;50.960;6.220;2022-08-18T11:32:40;1.05;;;0.30;;
50267;SDS011;36153;50.960;6.220;2022-08-18T11:35:46;0.52;;;0.17;;
50267;SDS011;36153;50.960;6.220;2022-08-18T11:38:55;0.55;;;0.20;;
50267;SDS011;36153;50.960;6.220;2022-08-18T11:41:57;0.57;;;0.25;;
50267;SDS011;36153;50.960;6.220;2022-08-18T11:45:03;0.75;;;0.40;;
50267;SDS011;36153;50.960;6.220;2022-08-18T11:51:27;0.40;;;0.10;;
50267;SDS011;36153;50.960;6.220;2022-08-18T11:54:34;0.55;;;0.20;;
50267;SDS011;36153;50.960;6.220;2022-08-18T11:57:41;0.52;;;0.52;;
50267;SDS011;36153;50.960;6.220;2022-08-18T12:03:52;0.10;;;0.10;;
50267;SDS011;36153;50.960;6.220;2022-08-18T12:07:03;0.55;;;0.30;;
50267;SDS011;36153;50.960;6.220;2022-08-18T12:13:23;0.05;;;0.05;;
50267;SDS011;36153;50.960;6.220;2022-08-18T12:16:34;0.10;;;0.10;;
50267;SDS011;36153;50.960;6.220;2022-08-18T12:19:37;0.82;;;0.30;;
50267;SDS011;36153;50.960;6.220;2022-08-18T12:22:38;0.57;;;0.32;;
50267;SDS011;36153;50.960;6.220;2022-08-18T12:25:41;0.20;;;0.20;;
50267;SDS011;36153;50.960;6.220;2022-08-18T12:28:42;0.15;;;0.05;;
50267;SDS011;36153;50.960;6.220;2022-08-18T12:31:43;0.20;;;0.17;;
50267;SDS011;36153;50.960;6.220;2022-08-18T12:34:44;0.90;;;0.63;;
50267;SDS011;36153;50.960;6.220;2022-08-18T12:37:45;0.10;;;0.10;;
50267;SDS011;36153;50.960;6.220;2022-08-18T12:40:45;0.20;;;0.10;;
50267;SDS011;36153;50.960;6.220;2022-08-18T12:43:46;0.63;;;0.30;;
50267;SDS011;36153;50.960;6.220;2022-08-18T12:46:47;0.00;;;0.00;;
50267;SDS011;36153;50.960;6.220;2022-08-18T12:49:48;0.13;;;0.13;;
50267;SDS011;36153;50.960;6.220;2022-08-18T12:52:49;0.03;;;0.03;;
50267;SDS011;36153;50.960;6.220;2022-08-18T12:55:49;0.38;;;0.13;;
50267;SDS011;36153;50.960;6.220;2022-08-18T12:58:50;0.47;;;0.10;;
50267;SDS011;36153;50.960;6.220;2022-08-18T13:01:52;0.22;;;0.20;;
50267;SDS011;36153;50.960;6.220;2022-08-18T13:04:52;0.25;;;0.25;;
50267;SDS011;36153;50.960;6.220;2022-08-18T13:07:53;1.52;;;0.50;;
50267;SDS011;36153;50.960;6.220;2022-08-18T13:10:57;0.10;;;0.10;;
50267;SDS011;36153;50.960;6.220;2022-08-18T13:13:59;0.20;;;0.20;;
50267;SDS011;36153;50.960;6.220;2022-08-18T13:17:00;0.17;;;0.13;;
50267;SDS011;36153;50.960;6.220;2022-08-18T13:20:06;1.85;;;0.90;;
50267;SDS011;36153;50.960;6.220;2022-08-18T13:23:10;0.13;;;0.13;;
50267;SDS011;36153;50.960;6.220;2022-08-18T13:26:24;0.25;;;0.20;;
50267;SDS011;36153;50.960;6.220;2022-08-18T13:29:27;0.20;;;0.00;;
50267;SDS011;36153;50.960;6.220;2022-08-18T13:32:27;0.30;;;0.10;;
50267;SDS011;36153;50.960;6.220;2022-08-18T13:35:28;0.00;;;0.00;;
50267;SDS011;36153;50.960;6.220;2022-08-18T13:38:28;0.10;;;0.10;;
50267;SDS011;36153;50.960;6.220;2022-08-18T13:41:29;0.28;;;0.13;;
50267;SDS011;36153;50.960;6.220;2022-08-18T13:44:30;0.10;;;0.10;;
50267;SDS011;36153;50.960;6.220;2022-08-18T13:47:30;0.10;;;0.10;;
50267;SDS011;36153;50.960;6.220;2022-08-18T13:50:31;0.20;;;0.20;;
50267;SDS011;36153;50.960;6.220;2022-08-18T13:53:31;0.43;;;0.15;;
50267;SDS011;36153;50.960;6.220;2022-08-18T13:56:33;0.10;;;0.05;;
50267;SDS011;36153;50.960;6.220;2022-08-18T13:59:33;4.07;;;1.08;;
50267;SDS011;36153;50.960;6.220;2022-08-18T14:02:33;0.45;;;0.45;;
50267;SDS011;36153;50.960;6.220;2022-08-18T14:05:34;0.20;;;0.20;;
50267;SDS011;36153;50.960;6.220;2022-08-18T14:08:34;0.47;;;0.20;;
50267;SDS011;36153;50.960;6.220;2022-08-18T14:11:35;0.28;;;0.10;;
50267;SDS011;36153;50.960;6.220;2022-08-18T14:14:36;0.15;;;0.15;;
50267;SDS011;36153;50.960;6.220;2022-08-18T14:17:37;0.10;;;0.05;;
50267;SDS011;36153;50.960;6.220;2022-08-18T14:20:38;0.10;;;0.10;;
50267;SDS011;36153;50.960;6.220;2022-08-18T14:23:57;0.20;;;0.20;;
50267;SDS011;36153;50.960;6.220;2022-08-18T14:27:19;0.10;;;0.10;;
50267;SDS011;36153;50.960;6.220;2022-08-18T14:30:26;0.22;;;0.10;;
50267;SDS011;36153;50.960;6.220;2022-08-18T14:33:27;0.20;;;0.20;;
50267;SDS011;36153;50.960;6.220;2022-08-18T14:36:28;0.15;;;0.15;;
50267;SDS011;36153;50.960;6.220;2022-08-18T14:39:29;0.57;;;0.15;;
50267;SDS011;36153;50.960;6.220;2022-08-18T14:42:29;0.10;;;0.00;;
50267;SDS011;36153;50.960;6.220;2022-08-18T14:45:29;0.13;;;0.13;;
50267;SDS011;36153;50.960;6.220;2022-08-18T14:48:30;0.13;;;0.10;;
50267;SDS011;36153;50.960;6.220;2022-08-18T14:51:31;0.00;;;0.00;;
50267;SDS011;36153;50.960;6.220;2022-08-18T14:54:31;0.52;;;0.35;;
50267;SDS011;36153;50.960;6.220;2022-08-18T14:57:32;0.10;;;0.10;;
50267;SDS011;36153;50.960;6.220;2022-08-18T15:00:32;0.32;;;0.20;;
50267;SDS011;36153;50.960;6.220;2022-08-18T15:03:35;0.32;;;0.17;;
50267;SDS011;36153;50.960;6.220;2022-08-18T15:06:36;0.20;;;0.00;;
50267;SDS011;36153;50.960;6.220;2022-08-18T15:09:36;0.03;;;0.03;;
50267;SDS011;36153;50.960;6.220;2022-08-18T15:12:36;0.17;;;0.10;;
50267;SDS011;36153;50.960;6.220;2022-08-18T15:15:37;0.20;;;0.17;;
50267;SDS011;36153;50.960;6.220;2022-08-18T15:18:37;0.30;;;0.20;;
50267;SDS011;36153;50.960;6.220;2022-08-18T15:21:39;0.00;;;0.00;;
50267;SDS011;36153;50.960;6.220;2022-08-18T15:24:58;0.40;;;0.22;;
50267;SDS011;36153;50.960;6.220;2022-08-18T15:28:18;0.00;;;0.00;;
50267;SDS011;36153;50.960;6.220;2022-08-18T15:31:20;0.35;;;0.20;;
50267;SDS011;36153;50.960;6.220;2022-08-18T15:34:21;0.20;;;0.20;;
50267;SDS011;36153;50.960;6.220;2022-08-18T15:37:21;0.30;;;0.30;;
50267;SDS011;36153;50.960;6.220;2022-08-18T15:40:23;0.10;;;0.10;;
50267;SDS011;36153;50.960;6.220;2022-08-18T15:43:30;0.05;;;0.00;;
50267;SDS011;36153;50.960;6.220;2022-08-18T15:46:32;0.17;;;0.10;;
50267;SDS011;36153;50.960;6.220;2022-08-18T15:49:34;0.00;;;0.00;;
50267;SDS011;36153;50.960;6.220;2022-08-18T15:52:34;0.20;;;0.20;;
50267;SDS011;36153;50.960;6.220;2022-08-18T15:55:35;0.00;;;0.00;;
50267;SDS011;36153;50.960;6.220;2022-08-18T15:58:38;0.22;;;0.22;;
50267;SDS011;36153;50.960;6.220;2022-08-18T16:01:39;0.28;;;0.22;;
50267;SDS011;36153;50.960;6.220;2022-08-18T16:04:39;0.03;;;0.03;;
50267;SDS011;36153;50.960;6.220;2022-08-18T16:07:40;0.32;;;0.17;;
50267;SDS011;36153;50.960;6.220;2022-08-18T16:10:46;0.10;;;0.10;;
50267;SDS011;36153;50.960;6.220;2022-08-18T16:13:47;0.00;;;0.00;;
50267;SDS011;36153;50.960;6.220;2022-08-18T16:16:48;0.57;;;0.28;;
50267;SDS011;36153;50.960;6.220;2022-08-18T16:19:48;0.65;;;0.52;;
50267;SDS011;36153;50.960;6.220;2022-08-18T16:22:49;0.10;;;0.03;;
50267;SDS011;36153;50.960;6.220;2022-08-18T16:25:50;3.13;;;0.50;;
50267;SDS011;36153;50.960;6.220;2022-08-18T16:28:51;1.05;;;0.90;;
50267;SDS011;36153;50.960;6.220;2022-08-18T16:31:52;0.32;;;0.10;;
50267;SDS011;36153;50.960;6.220;2022-08-18T16:34:52;0.08;;;0.08;;
50267;SDS011;36153;50.960;6.220;2022-08-18T16:37:52;0.13;;;0.10;;
50267;SDS011;36153;50.960;6.220;2022-08-18T16:40:53;0.38;;;0.22;;
50267;SDS011;36153;50.960;6.220;2022-08-18T16:43:53;0.10;;;0.10;;
50267;SDS011;36153;50.960;6.220;2022-08-18T16:46:55;0.10;;;0.10;;
50267;SDS011;36153;50.960;6.220;2022-08-18T16:49:56;0.10;;;0.10;;
50267;SDS011;36153;50.960;6.220;2022-08-18T16:52:57;0.00;;;0.00;;
50267;SDS011;36153;50.960;6.220;2022-08-18T16:55:57;0.00;;;0.00;;
50267;SDS011;36153;50.960;6.220;2022-08-18T16:58:57;0.32;;;0.32;;
50267;SDS011;36153;50.960;6.220;2022-08-18T17:02:16;0.10;;;0.00;;
50267;SDS011;36153;50.960;6.220;2022-08-18T17:05:36;0.28;;;0.28;;
50267;SDS011;36153;50.960;6.220;2022-08-18T17:08:37;0.35;;;0.22;;
50267;SDS011;36153;50.960;6.220;2022-08-18T17:11:38;0.13;;;0.10;;
50267;SDS011;36153;50.960;6.220;2022-08-18T17:14:39;0.00;;;0.00;;
50267;SDS011;36153;50.960;6.220;2022-08-18T17:17:39;0.10;;;0.10;;
50267;SDS011;36153;50.960;6.220;2022-08-18T17:20:40;1.00;;;0.63;;
50267;SDS011;36153;50.960;6.220;2022-08-18T17:23:40;0.40;;;0.30;;
50267;SDS011;36153;50.960;6.220;2022-08-18T17:26:43;0.30;;;0.20;;
50267;SDS011;36153;50.960;6.220;2022-08-18T17:30:11;0.30;;;0.20;;
50267;SDS011;36153;50.960;6.220;2022-08-18T17:33:17;0.50;;;0.20;;
50267;SDS011;36153;50.960;6.220;2022-08-18T17:36:27;0.15;;;0.10;;
50267;SDS011;36153;50.960;6.220;2022-08-18T17:39:35;0.10;;;0.10;;
50267;SDS011;36153;50.960;6.220;2022-08-18T17:42:39;1.43;;;0.07;;
50267;SDS011;36153;50.960;6.220;2022-08-18T17:45:39;0.32;;;0.20;;
50267;SDS011;36153;50.960;6.220;2022-08-18T17:48:42;0.15;;;0.13;;
50267;SDS011;36153;50.960;6.220;2022-08-18T17:51:48;0.00;;;0.00;;
50267;SDS011;36153;50.960;6.220;2022-08-18T17:55:33;0.45;;;0.25;;
50267;SDS011;36153;50.960;6.220;2022-08-18T17:58:30;0.10;;;0.10;;
50267;SDS011;36153;50.960;6.220;2022-08-18T18:01:39;0.60;;;0.20;;
50267;SDS011;36153;50.960;6.220;2022-08-18T18:04:42;0.03;;;0.03;;
50267;SDS011;36153;50.960;6.220;2022-08-18T18:10:49;0.13;;;0.00;;
50267;SDS011;36153;50.960;6.220;2022-08-18T18:13:52;0.20;;;0.20;;
50267;SDS011;36153;50.960;6.220;2022-08-18T18:23:22;0.57;;;0.10;;
50267;SDS011;36153;50.960;6.220;2022-08-18T18:26:34;0.13;;;0.13;;
50267;SDS011;36153;50.960;6.220;2022-08-18T18:29:37;1.55;;;0.32;;
50267;SDS011;36153;50.960;6.220;2022-08-18T18:35:57;0.38;;;0.38;;
50267;SDS011;36153;50.960;6.220;2022-08-18T18:39:03;0.10;;;0.10;;
50267;SDS011;36153;50.960;6.220;2022-08-18T18:42:15;0.50;;;0.30;;
50267;SDS011;36153;50.960;6.220;2022-08-18T18:45:28;0.25;;;0.13;;
50267;SDS011;36153;50.960;6.220;2022-08-18T18:48:41;0.25;;;0.13;;
50267;SDS011;36153;50.960;6.220;2022-08-18T18:58:37;0.10;;;0.10;;
50267;SDS011;36153;50.960;6.220;2022-08-18T19:05:32;0.35;;;0.20;;
50267;SDS011;36153;50.960;6.220;2022-08-18T19:08:41;0.38;;;0.15;;
50267;SDS011;36153;50.960;6.220;2022-08-18T19:15:12;0.52;;;0.35;;
50267;SDS011;36153;50.960;6.220;2022-08-18T19:18:27;0.13;;;0.13;;
50267;SDS011;36153;50.960;6.220;2022-08-18T19:21:32;0.35;;;0.20;;
50267;SDS011;36153;50.960;6.220;2022-08-18T19:24:38;0.10;;;0.10;;
50267;SDS011;36153;50.960;6.220;2022-08-18T19:27:45;0.32;;;0.15;;
50267;SDS011;36153;50.960;6.220;2022-08-18T19:30:52;0.22;;;0.20;;
50267;SDS011;36153;50.960;6.220;2022-08-18T19:33:57;0.20;;;0.20;;
50267;SDS011;36153;50.960;6.220;2022-08-18T19:40:28;0.00;;;0.00;;
50267;SDS011;36153;50.960;6.220;2022-08-18T19:46:49;0.00;;;0.00;;
50267;SDS011;36153;50.960;6.220;2022-08-18T19:49:58;0.40;;;0.10;;
50267;SDS011;36153;50.960;6.220;2022-08-18T19:56:54;0.20;;;0.20;;
50267;SDS011;36153;50.960;6.220;2022-08-18T20:09:59;0.00;;;0.00;;
50267;SDS011;36153;50.960;6.220;2022-08-18T20:22:51;0.32;;;0.17;;
50267;SDS011;36153;50.960;6.220;2022-08-18T20:25:52;0.00;;;0.00;;
50267;SDS011;36153;50.960;6.220;2022-08-18T20:28:53;0.20;;;0.20;;
50267;SDS011;36153;50.960;6.220;2022-08-18T20:31:57;0.57;;;0.55;;
50267;SDS011;36153;50.960;6.220;2022-08-18T20:35:16;0.22;;;0.17;;
50267;SDS011;36153;50.960;6.220;2022-08-18T20:38:25;0.10;;;0.10;;
50267;SDS011;36153;50.960;6.220;2022-08-18T20:41:32;0.00;;;0.00;;
50267;SDS011;36153;50.960;6.220;2022-08-18T20:50:54;1.73;;;0.08;;
50267;SDS011;36153;50.960;6.220;2022-08-18T20:54:03;0.10;;;0.10;;
50267;SDS011;36153;50.960;6.220;2022-08-18T20:57:09;0.22;;;0.22;;
50267;SDS011;36153;50.960;6.220;2022-08-18T21:03:19;0.20;;;0.20;;
50267;SDS011;36153;50.960;6.220;2022-08-18T21:06:19;0.32;;;0.30;;
50267;SDS011;36153;50.960;6.220;2022-08-18T21:09:24;1.17;;;0.22;;
50267;SDS011;36153;50.960;6.220;2022-08-18T21:12:26;0.13;;;0.10;;
50267;SDS011;36153;50.960;6.220;2022-08-18T21:15:29;0.20;;;0.20;;
50267;SDS011;36153;50.960;6.220;2022-08-18T21:18:36;0.40;;;0.10;;
50267;SDS011;36153;50.960;6.220;2022-08-18T21:21:42;0.00;;;0.00;;
50267;SDS011;36153;50.960;6.220;2022-08-18T21:24:44;0.08;;;0.08;;
50267;SDS011;36153;50.960;6.220;2022-08-18T21:27:49;0.00;;;0.00;;
50267;SDS011;36153;50.960;6.220;2022-08-18T21:30:53;0.17;;;0.13;;
50267;SDS011;36153;50.960;6.220;2022-08-18T21:33:56;0.15;;;0.15;;
50267;SDS011;36153;50.960;6.220;2022-08-18T21:37:00;0.00;;;0.00;;
50267;SDS011;36153;50.960;6.220;2022-08-18T21:40:06;0.10;;;0.10;;
50267;SDS011;36153;50.960;6.220;2022-08-18T21:43:08;0.05;;;0.05;;
50267;SDS011;36153;50.960;6.220;2022-08-18T21:46:11;0.10;;;0.10;;
50267;SDS011;36153;50.960;6.220;2022-08-18T21:49:21;0.50;;;0.45;;
50267;SDS011;36153;50.960;6.220;2022-08-18T21:52:24;0.32;;;0.30;;
50267;SDS011;36153;50.960;6.220;2022-08-18T21:55:30;0.25;;;0.10;;